Weather at Laramie Regional Airport

Public forecast

Using degrees Fahrenheit for public forecast. Weather courtesy of forecast.io.

Current aviation weather report (METAR) for Laramie Regional Airport

Retrieved 2021/01/19 13:53 UTC (53 minutes ago):

KLAR 191353Z AUTO 21006KT 10SM OVC037 M16/M18 A3032 RMK AO2 SLP358 T11611183

Aviation forecast (TAF) for Laramie Regional Airport

Retrieved 2021/01/19 12:39 UTC (2 hours ago):

TAF KLAR 191136Z 1912/2012 VRB04KT P6SM BKN025 FM191700 VRB05KT P6SM SKC FM200300 21014KT P6SM SKC